sensor_id;sensor_type;location;lat;lon;timestamp;temperature;humidity
17307;DHT22;8771;48.048;7.682;2023-03-25T00:03:31;11.60;67.70
17307;DHT22;8771;48.048;7.682;2023-03-25T00:08:36;11.60;67.60
17307;DHT22;8771;48.048;7.682;2023-03-25T00:13:38;11.60;67.60
17307;DHT22;8771;48.048;7.682;2023-03-25T00:18:41;11.60;67.60
17307;DHT22;8771;48.048;7.682;2023-03-25T00:23:45;11.60;67.70
17307;DHT22;8771;48.048;7.682;2023-03-25T00:28:47;11.60;67.70
17307;DHT22;8771;48.048;7.682;2023-03-25T00:33:49;11.60;67.70
17307;DHT22;8771;48.048;7.682;2023-03-25T00:38:52;11.60;67.70
17307;DHT22;8771;48.048;7.682;2023-03-25T00:43:57;11.50;67.60
17307;DHT22;8771;48.048;7.682;2023-03-25T00:48:59;11.40;67.70
17307;DHT22;8771;48.048;7.682;2023-03-25T00:54:03;11.30;67.90
17307;DHT22;8771;48.048;7.682;2023-03-25T00:59:05;11.30;68.10
17307;DHT22;8771;48.048;7.682;2023-03-25T01:04:07;11.20;68.20
17307;DHT22;8771;48.048;7.682;2023-03-25T01:09:13;11.20;68.30
17307;DHT22;8771;48.048;7.682;2023-03-25T01:14:17;11.20;68.30
17307;DHT22;8771;48.048;7.682;2023-03-25T01:19:21;11.20;68.30
17307;DHT22;8771;48.048;7.682;2023-03-25T01:24:25;11.20;68.30
17307;DHT22;8771;48.048;7.682;2023-03-25T01:29:27;11.20;68.30
17307;DHT22;8771;48.048;7.682;2023-03-25T01:34:30;11.30;68.40
17307;DHT22;8771;48.048;7.682;2023-03-25T01:39:34;11.20;68.30
17307;DHT22;8771;48.048;7.682;2023-03-25T01:45:09;11.20;69.20
17307;DHT22;8771;48.048;7.682;2023-03-25T01:50:12;11.10;68.50
17307;DHT22;8771;48.048;7.682;2023-03-25T01:55:17;11.10;68.50
17307;DHT22;8771;48.048;7.682;2023-03-25T02:00:20;11.10;68.50
17307;DHT22;8771;48.048;7.682;2023-03-25T02:05:27;11.00;68.50
17307;DHT22;8771;48.048;7.682;2023-03-25T02:10:33;11.00;68.50
17307;DHT22;8771;48.048;7.682;2023-03-25T02:15:46;10.80;68.70
17307;DHT22;8771;48.048;7.682;2023-03-25T02:26:50;10.80;68.80
17307;DHT22;8771;48.048;7.682;2023-03-25T02:32:11;10.90;68.90
17307;DHT22;8771;48.048;7.682;2023-03-25T02:37:26;10.90;68.80
17307;DHT22;8771;48.048;7.682;2023-03-25T02:42:36;10.90;68.70
17307;DHT22;8771;48.048;7.682;2023-03-25T02:47:43;10.90;68.70
17307;DHT22;8771;48.048;7.682;2023-03-25T02:52:48;10.90;68.70
17307;DHT22;8771;48.048;7.682;2023-03-25T02:57:55;10.70;68.70
17307;DHT22;8771;48.048;7.682;2023-03-25T03:03:00;10.60;68.90
17307;DHT22;8771;48.048;7.682;2023-03-25T03:08:29;10.50;69.00
17307;DHT22;8771;48.048;7.682;2023-03-25T03:13:47;10.40;69.00
17307;DHT22;8771;48.048;7.682;2023-03-25T03:18:58;10.30;69.00
17307;DHT22;8771;48.048;7.682;2023-03-25T03:24:09;10.20;69.00
17307;DHT22;8771;48.048;7.682;2023-03-25T03:29:16;10.10;69.20
17307;DHT22;8771;48.048;7.682;2023-03-25T03:34:25;10.00;69.20
17307;DHT22;8771;48.048;7.682;2023-03-25T03:39:31;9.90;69.20
17307;DHT22;8771;48.048;7.682;2023-03-25T03:44:36;9.90;69.20
17307;DHT22;8771;48.048;7.682;2023-03-25T03:49:42;9.90;69.20
17307;DHT22;8771;48.048;7.682;2023-03-25T03:54:48;9.90;69.20
17307;DHT22;8771;48.048;7.682;2023-03-25T03:59:57;9.80;69.20
17307;DHT22;8771;48.048;7.682;2023-03-25T04:05:05;9.80;69.20
17307;DHT22;8771;48.048;7.682;2023-03-25T04:10:11;9.80;93.90
17307;DHT22;8771;48.048;7.682;2023-03-25T04:15:17;9.70;69.30
17307;DHT22;8771;48.048;7.682;2023-03-25T04:20:22;9.60;69.20
17307;DHT22;8771;48.048;7.682;2023-03-25T04:25:29;9.60;69.30
17307;DHT22;8771;48.048;7.682;2023-03-25T04:30:33;9.50;69.30
17307;DHT22;8771;48.048;7.682;2023-03-25T04:35:37;9.40;69.30
17307;DHT22;8771;48.048;7.682;2023-03-25T04:40:40;9.40;69.30
17307;DHT22;8771;48.048;7.682;2023-03-25T04:45:47;9.40;69.30
17307;DHT22;8771;48.048;7.682;2023-03-25T04:50:53;9.30;70.00
17307;DHT22;8771;48.048;7.682;2023-03-25T04:55:57;9.30;69.30
17307;DHT22;8771;48.048;7.682;2023-03-25T05:01:01;9.30;69.30
17307;DHT22;8771;48.048;7.682;2023-03-25T05:06:06;9.30;69.30
17307;DHT22;8771;48.048;7.682;2023-03-25T05:11:08;9.30;69.30
17307;DHT22;8771;48.048;7.682;2023-03-25T05:16:11;9.30;69.30
17307;DHT22;8771;48.048;7.682;2023-03-25T05:21:15;9.40;69.30
17307;DHT22;8771;48.048;7.682;2023-03-25T05:26:17;9.40;69.20
17307;DHT22;8771;48.048;7.682;2023-03-25T05:31:21;9.40;69.20
17307;DHT22;8771;48.048;7.682;2023-03-25T05:36:23;9.40;69.30
17307;DHT22;8771;48.048;7.682;2023-03-25T05:41:26;9.40;69.20
17307;DHT22;8771;48.048;7.682;2023-03-25T05:46:36;9.40;69.30
17307;DHT22;8771;48.048;7.682;2023-03-25T05:51:38;9.40;69.30
17307;DHT22;8771;48.048;7.682;2023-03-25T05:56:40;9.40;69.40
17307;DHT22;8771;48.048;7.682;2023-03-25T06:01:43;9.40;69.30
17307;DHT22;8771;48.048;7.682;2023-03-25T06:06:45;9.50;69.30
17307;DHT22;8771;48.048;7.682;2023-03-25T06:11:47;9.50;69.30
17307;DHT22;8771;48.048;7.682;2023-03-25T06:16:54;9.50;69.30
17307;DHT22;8771;48.048;7.682;2023-03-25T06:21:56;9.60;69.30
17307;DHT22;8771;48.048;7.682;2023-03-25T06:26:58;9.60;69.30
17307;DHT22;8771;48.048;7.682;2023-03-25T06:32:02;9.70;69.30
17307;DHT22;8771;48.048;7.682;2023-03-25T06:37:04;9.80;69.10
17307;DHT22;8771;48.048;7.682;2023-03-25T06:42:06;9.80;69.00
17307;DHT22;8771;48.048;7.682;2023-03-25T06:47:12;9.90;69.00
17307;DHT22;8771;48.048;7.682;2023-03-25T06:52:14;10.00;69.00
17307;DHT22;8771;48.048;7.682;2023-03-25T06:57:16;10.00;68.90
17307;DHT22;8771;48.048;7.682;2023-03-25T07:02:20;10.10;68.90
17307;DHT22;8771;48.048;7.682;2023-03-25T07:07:22;10.10;68.80
17307;DHT22;8771;48.048;7.682;2023-03-25T07:12:24;10.20;68.80
17307;DHT22;8771;48.048;7.682;2023-03-25T07:17:27;10.30;68.80
17307;DHT22;8771;48.048;7.682;2023-03-25T07:22:29;10.40;68.70
17307;DHT22;8771;48.048;7.682;2023-03-25T07:27:31;10.50;68.70
17307;DHT22;8771;48.048;7.682;2023-03-25T07:32:35;10.60;68.60
17307;DHT22;8771;48.048;7.682;2023-03-25T07:37:37;10.60;68.60
17307;DHT22;8771;48.048;7.682;2023-03-25T07:42:38;10.60;68.60
17307;DHT22;8771;48.048;7.682;2023-03-25T07:47:42;10.70;68.70
17307;DHT22;8771;48.048;7.682;2023-03-25T07:52:49;10.70;68.80
17307;DHT22;8771;48.048;7.682;2023-03-25T07:57:51;10.80;68.80
17307;DHT22;8771;48.048;7.682;2023-03-25T08:02:55;10.90;68.70
17307;DHT22;8771;48.048;7.682;2023-03-25T08:07:57;10.90;68.70
17307;DHT22;8771;48.048;7.682;2023-03-25T08:13:00;11.00;68.70
17307;DHT22;8771;48.048;7.682;2023-03-25T08:18:04;11.10;68.70
17307;DHT22;8771;48.048;7.682;2023-03-25T08:23:06;11.20;68.60
17307;DHT22;8771;48.048;7.682;2023-03-25T08:33:15;11.90;67.50
17307;DHT22;8771;48.048;7.682;2023-03-25T08:38:18;12.00;67.80
17307;DHT22;8771;48.048;7.682;2023-03-25T08:43:21;12.20;67.80
17307;DHT22;8771;48.048;7.682;2023-03-25T08:48:24;12.20;67.80
17307;DHT22;8771;48.048;7.682;2023-03-25T08:53:26;12.30;68.00
17307;DHT22;8771;48.048;7.682;2023-03-25T08:58:28;12.30;68.00
17307;DHT22;8771;48.048;7.682;2023-03-25T09:03:32;12.30;68.10
17307;DHT22;8771;48.048;7.682;2023-03-25T09:08:36;12.30;68.30
17307;DHT22;8771;48.048;7.682;2023-03-25T09:13:38;12.20;68.30
17307;DHT22;8771;48.048;7.682;2023-03-25T09:18:41;12.30;68.40
17307;DHT22;8771;48.048;7.682;2023-03-25T09:23:43;12.30;68.30
17307;DHT22;8771;48.048;7.682;2023-03-25T09:28:45;12.30;68.30
17307;DHT22;8771;48.048;7.682;2023-03-25T09:33:48;12.50;68.30
17307;DHT22;8771;48.048;7.682;2023-03-25T09:38:50;12.50;68.20
17307;DHT22;8771;48.048;7.682;2023-03-25T09:43:59;12.60;68.10
17307;DHT22;8771;48.048;7.682;2023-03-25T09:49:11;12.70;68.20
17307;DHT22;8771;48.048;7.682;2023-03-25T09:54:19;12.90;68.00
17307;DHT22;8771;48.048;7.682;2023-03-25T09:59:29;13.30;67.70
17307;DHT22;8771;48.048;7.682;2023-03-25T10:04:48;13.90;67.00
17307;DHT22;8771;48.048;7.682;2023-03-25T10:10:02;14.40;66.60
17307;DHT22;8771;48.048;7.682;2023-03-25T10:15:20;14.80;66.50
17307;DHT22;8771;48.048;7.682;2023-03-25T10:20:37;15.10;66.20
17307;DHT22;8771;48.048;7.682;2023-03-25T10:25:44;15.30;66.20
17307;DHT22;8771;48.048;7.682;2023-03-25T10:30:51;15.50;66.20
17307;DHT22;8771;48.048;7.682;2023-03-25T10:35:56;15.70;66.20
17307;DHT22;8771;48.048;7.682;2023-03-25T10:41:10;15.80;66.20
17307;DHT22;8771;48.048;7.682;2023-03-25T10:46:18;15.80;66.30
17307;DHT22;8771;48.048;7.682;2023-03-25T10:51:28;15.80;66.60
17307;DHT22;8771;48.048;7.682;2023-03-25T10:56:33;15.70;66.60
17307;DHT22;8771;48.048;7.682;2023-03-25T11:01:38;15.80;66.70
17307;DHT22;8771;48.048;7.682;2023-03-25T11:06:44;15.90;66.70
17307;DHT22;8771;48.048;7.682;2023-03-25T11:11:46;16.00;66.60
17307;DHT22;8771;48.048;7.682;2023-03-25T11:16:53;16.00;67.30
17307;DHT22;8771;48.048;7.682;2023-03-25T11:22:00;15.90;66.70
17307;DHT22;8771;48.048;7.682;2023-03-25T11:27:06;15.80;66.90
17307;DHT22;8771;48.048;7.682;2023-03-25T11:32:13;15.70;67.10
17307;DHT22;8771;48.048;7.682;2023-03-25T11:37:18;15.60;67.40
17307;DHT22;8771;48.048;7.682;2023-03-25T11:42:30;15.60;67.30
17307;DHT22;8771;48.048;7.682;2023-03-25T12:35:24;15.90;66.00
17307;DHT22;8771;48.048;7.682;2023-03-25T12:40:38;16.10;66.40
17307;DHT22;8771;48.048;7.682;2023-03-25T12:46:01;16.30;65.60
17307;DHT22;8771;48.048;7.682;2023-03-25T12:51:16;16.70;65.40
17307;DHT22;8771;48.048;7.682;2023-03-25T12:56:34;16.90;65.00
17307;DHT22;8771;48.048;7.682;2023-03-25T13:01:47;17.00;65.00
17307;DHT22;8771;48.048;7.682;2023-03-25T13:07:04;16.90;65.20
17307;DHT22;8771;48.048;7.682;2023-03-25T13:12:10;16.80;65.30
17307;DHT22;8771;48.048;7.682;2023-03-25T13:17:21;16.70;65.40
17307;DHT22;8771;48.048;7.682;2023-03-25T13:22:31;17.00;65.10
17307;DHT22;8771;48.048;7.682;2023-03-25T13:27:40;17.20;64.70
17307;DHT22;8771;48.048;7.682;2023-03-25T13:51:07;18.50;63.30
17307;DHT22;8771;48.048;7.682;2023-03-25T13:57:03;18.80;63.00
17307;DHT22;8771;48.048;7.682;2023-03-25T14:02:36;19.00;62.90
17307;DHT22;8771;48.048;7.682;2023-03-25T14:07:59;19.20;62.90
17307;DHT22;8771;48.048;7.682;2023-03-25T14:13:08;19.30;63.00
17307;DHT22;8771;48.048;7.682;2023-03-25T14:18:15;19.20;63.20
17307;DHT22;8771;48.048;7.682;2023-03-25T14:23:20;19.10;63.60
17307;DHT22;8771;48.048;7.682;2023-03-25T14:28:33;19.00;63.90
17307;DHT22;8771;48.048;7.682;2023-03-25T14:34:11;18.80;64.20
17307;DHT22;8771;48.048;7.682;2023-03-25T14:39:37;18.80;64.40
17307;DHT22;8771;48.048;7.682;2023-03-25T14:44:40;18.60;64.50
17307;DHT22;8771;48.048;7.682;2023-03-25T14:49:50;18.40;64.70
17307;DHT22;8771;48.048;7.682;2023-03-25T14:54:55;18.10;64.90
17307;DHT22;8771;48.048;7.682;2023-03-25T15:00:00;17.80;65.20
17307;DHT22;8771;48.048;7.682;2023-03-25T15:05:17;17.50;65.20
17307;DHT22;8771;48.048;7.682;2023-03-25T15:10:26;17.40;65.20
17307;DHT22;8771;48.048;7.682;2023-03-25T15:15:32;17.30;64.80
17307;DHT22;8771;48.048;7.682;2023-03-25T15:21:02;17.20;64.70
17307;DHT22;8771;48.048;7.682;2023-03-25T15:26:12;17.30;64.50
17307;DHT22;8771;48.048;7.682;2023-03-25T15:31:30;17.20;64.20
17307;DHT22;8771;48.048;7.682;2023-03-25T15:37:09;17.20;64.20
17307;DHT22;8771;48.048;7.682;2023-03-25T15:42:38;17.30;64.10
17307;DHT22;8771;48.048;7.682;2023-03-25T15:58:51;17.60;63.50
17307;DHT22;8771;48.048;7.682;2023-03-25T16:03:59;17.50;63.50
17307;DHT22;8771;48.048;7.682;2023-03-25T16:09:01;17.50;63.70
17307;DHT22;8771;48.048;7.682;2023-03-25T16:14:09;17.50;63.70
17307;DHT22;8771;48.048;7.682;2023-03-25T16:19:16;17.30;63.90
17307;DHT22;8771;48.048;7.682;2023-03-25T16:24:23;17.20;64.10
17307;DHT22;8771;48.048;7.682;2023-03-25T16:29:27;17.20;64.20
17307;DHT22;8771;48.048;7.682;2023-03-25T16:34:33;17.10;64.10
17307;DHT22;8771;48.048;7.682;2023-03-25T16:39:37;17.00;64.50
17307;DHT22;8771;48.048;7.682;2023-03-25T16:44:40;16.70;64.50
17307;DHT22;8771;48.048;7.682;2023-03-25T16:49:46;16.60;64.70
17307;DHT22;8771;48.048;7.682;2023-03-25T16:55:16;16.40;64.80
17307;DHT22;8771;48.048;7.682;2023-03-25T17:00:38;16.20;65.00
17307;DHT22;8771;48.048;7.682;2023-03-25T17:05:50;16.20;65.10
17307;DHT22;8771;48.048;7.682;2023-03-25T17:10:56;16.20;64.90
17307;DHT22;8771;48.048;7.682;2023-03-25T17:16:00;16.10;64.80
17307;DHT22;8771;48.048;7.682;2023-03-25T17:21:08;16.10;64.90
17307;DHT22;8771;48.048;7.682;2023-03-25T17:26:12;16.00;64.90
17307;DHT22;8771;48.048;7.682;2023-03-25T17:31:25;15.80;65.00
17307;DHT22;8771;48.048;7.682;2023-03-25T17:36:30;15.80;65.10
17307;DHT22;8771;48.048;7.682;2023-03-25T17:41:35;15.60;92.60
17307;DHT22;8771;48.048;7.682;2023-03-25T17:46:39;15.50;80.30
17307;DHT22;8771;48.048;7.682;2023-03-25T17:51:42;15.40;65.30
17307;DHT22;8771;48.048;7.682;2023-03-25T17:56:45;15.20;68.70
17307;DHT22;8771;48.048;7.682;2023-03-25T18:01:48;15.10;66.20
17307;DHT22;8771;48.048;7.682;2023-03-25T18:06:50;15.00;67.60
17307;DHT22;8771;48.048;7.682;2023-03-25T18:11:54;14.80;65.80
17307;DHT22;8771;48.048;7.682;2023-03-25T18:16:57;14.70;65.90
17307;DHT22;8771;48.048;7.682;2023-03-25T18:21:59;14.50;66.00
17307;DHT22;8771;48.048;7.682;2023-03-25T18:27:01;14.40;66.10
17307;DHT22;8771;48.048;7.682;2023-03-25T18:32:05;14.30;66.00
17307;DHT22;8771;48.048;7.682;2023-03-25T18:42:11;14.10;65.40
17307;DHT22;8771;48.048;7.682;2023-03-25T18:47:14;13.90;66.10
17307;DHT22;8771;48.048;7.682;2023-03-25T18:52:16;13.80;66.20
17307;DHT22;8771;48.048;7.682;2023-03-25T18:57:18;13.70;66.20
17307;DHT22;8771;48.048;7.682;2023-03-25T19:02:24;13.50;66.20
17307;DHT22;8771;48.048;7.682;2023-03-25T19:07:26;13.40;66.20
17307;DHT22;8771;48.048;7.682;2023-03-25T19:12:30;13.40;66.30
17307;DHT22;8771;48.048;7.682;2023-03-25T19:17:35;13.30;66.20
17307;DHT22;8771;48.048;7.682;2023-03-25T19:22:37;13.30;66.10
17307;DHT22;8771;48.048;7.682;2023-03-25T19:27:39;13.20;66.10
17307;DHT22;8771;48.048;7.682;2023-03-25T19:32:43;13.20;66.10
17307;DHT22;8771;48.048;7.682;2023-03-25T19:37:46;13.10;66.00
17307;DHT22;8771;48.048;7.682;2023-03-25T19:42:52;13.10;66.00
17307;DHT22;8771;48.048;7.682;2023-03-25T19:47:56;13.00;65.90
17307;DHT22;8771;48.048;7.682;2023-03-25T19:53:00;13.00;66.00
17307;DHT22;8771;48.048;7.682;2023-03-25T19:58:02;13.00;66.00
17307;DHT22;8771;48.048;7.682;2023-03-25T20:03:07;12.90;66.00
17307;DHT22;8771;48.048;7.682;2023-03-25T20:08:09;12.90;66.00
17307;DHT22;8771;48.048;7.682;2023-03-25T20:13:12;12.80;65.90
17307;DHT22;8771;48.048;7.682;2023-03-25T20:18:15;12.70;66.10
17307;DHT22;8771;48.048;7.682;2023-03-25T20:23:17;12.70;66.10
17307;DHT22;8771;48.048;7.682;2023-03-25T20:28:22;12.60;66.10
17307;DHT22;8771;48.048;7.682;2023-03-25T20:33:26;12.60;66.10
17307;DHT22;8771;48.048;7.682;2023-03-25T20:38:28;12.50;66.00
17307;DHT22;8771;48.048;7.682;2023-03-25T20:43:30;12.50;66.10
17307;DHT22;8771;48.048;7.682;2023-03-25T20:48:35;12.50;66.00
17307;DHT22;8771;48.048;7.682;2023-03-25T20:53:37;12.50;66.00
17307;DHT22;8771;48.048;7.682;2023-03-25T20:58:41;12.40;66.00
17307;DHT22;8771;48.048;7.682;2023-03-25T21:03:48;12.40;66.00
17307;DHT22;8771;48.048;7.682;2023-03-25T21:08:51;12.40;66.00
17307;DHT22;8771;48.048;7.682;2023-03-25T21:13:55;12.40;66.00
17307;DHT22;8771;48.048;7.682;2023-03-25T21:18:59;12.30;66.10
17307;DHT22;8771;48.048;7.682;2023-03-25T21:24:02;12.20;66.10
17307;DHT22;8771;48.048;7.682;2023-03-25T21:29:06;12.10;66.20
17307;DHT22;8771;48.048;7.682;2023-03-25T21:34:10;12.10;66.40
17307;DHT22;8771;48.048;7.682;2023-03-25T21:39:15;12.00;66.40
17307;DHT22;8771;48.048;7.682;2023-03-25T21:44:17;12.00;66.60
17307;DHT22;8771;48.048;7.682;2023-03-25T21:49:21;11.90;66.60
17307;DHT22;8771;48.048;7.682;2023-03-25T21:54:24;11.90;66.60
17307;DHT22;8771;48.048;7.682;2023-03-25T21:59:26;11.90;66.60
17307;DHT22;8771;48.048;7.682;2023-03-25T22:04:29;11.90;66.60
17307;DHT22;8771;48.048;7.682;2023-03-25T22:09:34;11.90;66.40
17307;DHT22;8771;48.048;7.682;2023-03-25T22:14:36;11.90;66.40
17307;DHT22;8771;48.048;7.682;2023-03-25T22:19:39;12.00;66.40
17307;DHT22;8771;48.048;7.682;2023-03-25T22:24:42;12.00;66.40
17307;DHT22;8771;48.048;7.682;2023-03-25T22:29:44;12.00;66.30
17307;DHT22;8771;48.048;7.682;2023-03-25T22:34:47;12.00;66.30
17307;DHT22;8771;48.048;7.682;2023-03-25T22:39:49;12.00;66.30
17307;DHT22;8771;48.048;7.682;2023-03-25T22:44:51;12.00;66.30
17307;DHT22;8771;48.048;7.682;2023-03-25T22:49:56;12.00;66.30
17307;DHT22;8771;48.048;7.682;2023-03-25T22:54:58;12.00;66.30
17307;DHT22;8771;48.048;7.682;2023-03-25T23:00:00;12.00;66.30
17307;DHT22;8771;48.048;7.682;2023-03-25T23:05:05;12.00;66.30
17307;DHT22;8771;48.048;7.682;2023-03-25T23:10:09;12.00;66.40
17307;DHT22;8771;48.048;7.682;2023-03-25T23:15:13;12.00;66.50
17307;DHT22;8771;48.048;7.682;2023-03-25T23:20:16;12.00;66.50
17307;DHT22;8771;48.048;7.682;2023-03-25T23:25:18;12.00;66.60
17307;DHT22;8771;48.048;7.682;2023-03-25T23:30:20;11.90;66.60
17307;DHT22;8771;48.048;7.682;2023-03-25T23:35:24;11.90;66.60
17307;DHT22;8771;48.048;7.682;2023-03-25T23:40:27;11.90;66.70
17307;DHT22;8771;48.048;7.682;2023-03-25T23:45:29;11.90;66.70
17307;DHT22;8771;48.048;7.682;2023-03-25T23:50:34;11.90;66.70
17307;DHT22;8771;48.048;7.682;2023-03-25T23:55:36;11.90;66.70
